Time;durP1;ratioP1;P1;durP2;ratioP2;P2;SDS_P1;SDS_P2;PMS_P1;PMS_P2;Temp;Humidity;BMP_temperature;BMP_pressure;BME280_temperature;BME280_humidity;BME280_pressure;Samples;Min_cycle;Max_cycle;Signal;HPM_P1;HPM_P2
2024/01/03 00:00:26;;;;;;;1.90;0.50;;;;;;;-141.84;100.00;119224.81;5053038;28;20839;-56
2024/01/03 00:02:55;;;;;;;0.47;0.37;;;;;;;-141.84;100.00;119224.81;5053181;28;20217;-60
2024/01/03 00:05:36;;;;;;;0.50;0.30;;;;;;;-141.84;100.00;119224.81;5053101;28;20224;-56
2024/01/03 00:08:06;;;;;;;0.20;0.20;;;;;;;-141.84;100.00;119224.81;5051435;28;20247;-57
2024/01/03 00:10:43;;;;;;;0.57;0.40;;;;;;;-141.84;100.00;119224.81;5052809;28;20735;-55
2024/01/03 00:13:50;;;;;;;0.63;0.40;;;;;;;-141.84;100.00;119224.81;5053197;28;20284;-57
2024/01/03 00:16:22;;;;;;;0.57;0.40;;;;;;;-141.84;100.00;119224.81;5037707;28;20278;-57
2024/01/03 00:18:54;;;;;;;0.40;0.40;;;;;;;-141.84;100.00;119224.81;5053620;28;20225;-56
2024/01/03 00:21:26;;;;;;;0.30;0.30;;;;;;;-141.84;100.00;119224.81;5052763;28;20305;-58
2024/01/03 00:23:56;;;;;;;0.50;0.40;;;;;;;-141.84;100.00;119224.81;5052886;28;20217;-55
2024/01/03 00:26:26;;;;;;;0.30;0.30;;;;;;;-141.84;100.00;119224.81;5052736;28;20225;-61
2024/01/03 00:28:55;;;;;;;0.53;0.30;;;;;;;-141.84;100.00;119224.81;5052314;28;20593;-59
2024/01/03 00:31:37;;;;;;;0.40;0.40;;;;;;;-141.84;100.00;119224.81;5052796;28;20232;-56
2024/01/03 00:34:16;;;;;;;0.40;0.30;;;;;;;-141.84;100.00;119224.81;5052167;28;20953;-57
2024/01/03 00:36:48;;;;;;;0.30;0.30;;;;;;;-141.84;100.00;119224.81;5053210;28;20220;-54
2024/01/03 00:39:18;;;;;;;1.07;0.30;;;;;;;-141.84;100.00;119224.81;5052469;28;20221;-57
2024/01/03 00:41:47;;;;;;;0.30;0.30;;;;;;;-141.84;100.00;119224.81;5052254;28;20248;-57
2024/01/03 00:44:15;;;;;;;1.80;0.97;;;;;;;-141.84;100.00;119224.81;5052408;28;20221;-57
2024/01/03 00:46:44;;;;;;;0.77;0.30;;;;;;;-141.84;100.00;119224.81;5052346;28;20628;-57
2024/01/03 00:49:13;;;;;;;0.40;0.30;;;;;;;-141.84;100.00;119222.75;5052170;28;20709;-55
2024/01/03 00:51:50;;;;;;;0.60;0.40;;;;;;;-141.84;100.00;119222.75;5052661;28;20190;-56
2024/01/03 00:54:20;;;;;;;0.37;0.30;;;;;;;-141.84;100.00;119222.75;5044285;28;20276;-56
2024/01/03 00:56:49;;;;;;;0.37;0.37;;;;;;;-141.84;100.00;118422.72;5052097;28;20225;-57
2024/01/03 00:59:18;;;;;;;0.30;0.30;;;;;;;-141.84;100.00;117889.44;5043739;28;20217;-56
2024/01/03 01:01:48;;;;;;;0.77;0.30;;;;;;;-141.84;100.00;114957.72;5048993;28;20831;-59
2024/01/03 01:04:17;;;;;;;0.80;0.50;;;;;;;-141.84;100.00;112028.13;5051336;28;20937;-57
2024/01/03 01:06:46;;;;;;;0.30;0.30;;;;;;;-141.84;100.00;108302.56;5052237;28;20695;-56
2024/01/03 01:09:16;;;;;;;0.50;0.50;;;;;;;-141.84;100.00;109632.72;5051861;28;20221;-51
2024/01/03 01:11:45;;;;;;;1.97;0.30;;;;;;;-141.84;100.00;110164.91;5051909;28;20858;-55
2024/01/03 01:14:13;;;;;;;0.87;0.40;;;;;;;-141.84;100.00;108834.56;5043748;28;20229;-56
2024/01/03 01:16:42;;;;;;;0.60;0.60;;;;;;;-141.84;100.00;109100.59;5052024;28;20225;-55
2024/01/03 01:19:10;;;;;;;0.40;0.40;;;;;;;-141.84;100.00;109366.66;5051857;28;20755;-57
2024/01/03 01:21:42;;;;;;;0.30;0.30;;;;;;;-141.84;100.00;107504.66;5052453;28;20251;-57
2024/01/03 01:24:10;;;;;;;0.40;0.40;;;;;;;-141.84;100.00;107504.66;5051955;28;20296;-55
2024/01/03 01:26:40;;;;;;;0.40;0.33;;;;;;;-141.84;100.00;107770.63;5051811;28;20241;-57
2024/01/03 01:29:09;;;;;;;0.20;0.20;;;;;;;-141.84;99.29;97146.31;5051593;28;20228;-57
2024/01/03 01:31:37;;;;;;;3.43;0.50;;;;;;;-141.84;99.06;96615.84;5051425;28;20256;-56
2024/01/03 01:34:06;;;;;;;0.30;0.30;;;;;;;-141.84;96.85;91049.97;5051189;28;20309;-58
2024/01/03 01:36:34;;;;;;;0.77;0.40;;;;;;;-141.84;94.34;82054.78;5052170;28;20192;-57
2024/01/03 01:39:04;;;;;;;0.97;0.40;;;;;;;-141.84;94.42;82847.66;5051270;28;20217;-56
2024/01/03 01:41:32;;;;;;;0.40;0.40;;;;;;;-141.84;93.94;81790.53;5043284;28;20630;-57
2024/01/03 01:44:02;;;;;;;0.70;0.30;;;;;;;-141.84;93.07;78092.72;5051325;28;20236;-57
2024/01/03 01:46:31;;;;;;;0.37;0.30;;;;;;;-141.84;92.99;78620.75;5051369;28;20271;-55
2024/01/03 01:49:00;;;;;;;0.30;0.30;;;;;;;-141.84;92.37;75189.69;5051908;28;20194;-58
2024/01/03 01:51:29;;;;;;;0.87;0.30;;;;;;;-141.84;93.67;80205.34;5051287;28;20284;-57
2024/01/03 01:53:58;;;;;;;0.40;0.40;;;;;;;-141.84;94.04;80733.66;5051109;28;20229;-58
2024/01/03 01:56:27;;;;;;;0.20;0.20;;;;;;;-141.84;92.75;76245.09;5051204;28;20232;-55
2024/01/03 01:58:56;;;;;;;0.30;0.30;;;;;;;-141.84;93.55;80469.50;5043802;28;20217;-56
2024/01/03 02:01:29;;;;;;;0.43;0.40;;;;;;;-141.84;94.01;81790.53;5051409;28;20229;-58
2024/01/03 02:03:58;;;;;;;0.20;0.20;;;;;;;-141.84;94.76;83640.72;5051665;28;20217;-57
2024/01/03 02:06:27;;;;;;;0.40;0.40;;;;;;;-141.84;95.48;86549.84;5051500;28;20217;-57
2024/01/03 02:08:55;;;;;;;0.43;0.30;;;;;;;-141.84;96.18;88137.56;5051027;28;20638;-57
2024/01/03 02:11:24;;;;;;;0.33;0.30;;;;;;;-141.84;97.35;91579.72;5050771;28;20743;-58
2024/01/03 02:13:53;;;;;;;1.70;0.40;;;;;;;-141.84;97.78;93434.41;5050592;28;20719;-59
2024/01/03 02:16:22;;;;;;;0.37;0.37;;;;;;;-141.84;96.35;88931.63;5050449;28;20312;-58
2024/01/03 02:18:52;;;;;;;0.50;0.30;;;;;;;-141.84;96.80;90255.47;5051226;28;20810;-56
2024/01/03 02:21:22;;;;;;;0.40;0.30;;;;;;;-141.84;97.08;91314.81;5051013;28;20271;-57
2024/01/03 02:23:50;;;;;;;1.37;0.37;;;;;;;-141.84;97.74;92374.47;5051086;28;20864;-58
2024/01/03 02:26:19;;;;;;;0.50;0.40;;;;;;;-141.84;96.24;89461.13;5050945;28;20225;-58
2024/01/03 02:28:57;;;;;;;1.27;0.50;;;;;;;-141.84;97.82;92374.47;5050521;28;20221;-55
2024/01/03 02:31:26;;;;;;;0.97;0.40;;;;;;;-141.84;96.76;90255.47;5049906;28;20225;-56
2024/01/03 02:33:54;;;;;;;0.77;0.40;;;;;;;-141.84;97.95;92639.44;5050959;28;20211;-57
2024/01/03 02:36:25;;;;;;;0.70;0.50;;;;;;;-141.84;95.11;86020.75;5050618;28;20228;-57
2024/01/03 02:38:54;;;;;;;0.67;0.50;;;;;;;-141.84;91.10;72025.13;5050654;28;20713;-57
2024/01/03 02:41:23;;;;;;;0.93;0.40;;;;;;;-141.84;89.93;65703.56;5042949;28;20225;-55
2024/01/03 02:43:51;;;;;;;0.60;0.43;;;;;;;-141.84;91.25;69916.81;5050475;28;20221;-56
2024/01/03 02:46:20;;;;;;;2.00;0.70;;;;;;;-141.84;86.14;45751.28;5050192;28;20588;-56
2024/01/03 02:48:48;;;;;;;0.60;0.50;;;;;;;-141.84;83.71;30361.81;5050760;28;20289;-55
2024/01/03 02:51:21;;;;;;;0.60;0.40;;;;;;;-141.84;84.23;30416.81;5050450;28;20628;-57
2024/01/03 02:53:52;;;;;;;1.00;0.50;;;;;;;-141.84;83.00;26143.69;5050244;28;20221;-58
2024/01/03 02:56:20;;;;;;;1.00;0.70;;;;;;;-141.84;82.25;23762.69;5050320;28;20274;-57
2024/01/03 02:58:49;;;;;;;2.17;0.50;;;;;;;-141.84;81.62;22729.34;5042703;28;20248;-57
2024/01/03 03:01:17;;;;;;;1.67;0.60;;;;;;;-141.84;82.50;23960.03;5050149;28;20247;-55
2024/01/03 03:03:46;;;;;;;2.00;0.60;;;;;;;-141.84;83.87;28534.28;5050806;28;20579;-57
2024/01/03 03:06:15;;;;;;;1.47;0.80;;;;;;;-141.84;83.08;26001.19;5050041;28;20629;-56
2024/01/03 03:08:43;;;;;;;1.07;0.50;;;;;;;-141.84;81.82;23445.31;5049819;28;20300;-57
2024/01/03 03:11:13;;;;;;;0.50;0.50;;;;;;;-141.84;81.68;23168.69;5049890;28;20221;-58
2024/01/03 03:13:42;;;;;;;1.70;0.50;;;;;;;-141.84;80.71;21163.56;5049915;28;20759;-57
2024/01/03 03:16:10;;;;;;;1.13;0.60;;;;;;;-141.84;81.84;22308.34;5049981;28;20224;-56
2024/01/03 03:18:39;;;;;;;1.67;0.97;;;;;;;-141.84;81.39;22090.75;5050788;28;20284;-58
2024/01/03 03:21:09;;;;;;;1.57;0.60;;;;;;;-141.84;82.52;23760.66;5050037;28;20240;-57
2024/01/03 03:23:38;;;;;;;2.13;0.60;;;;;;;-141.84;82.63;24554.16;5042383;28;20248;-56
2024/01/03 03:26:06;;;;;;;1.13;0.40;;;;;;;-141.84;82.55;24472.75;5049821;28;20223;-57
2024/01/03 03:28:36;;;;;;;1.83;0.90;;;;;;;-141.84;80.58;20903.34;5052304;28;20233;-55
2024/01/03 03:31:06;;;;;;;1.00;0.50;;;;;;;-141.84;81.11;21578.31;5053561;28;20306;-58
2024/01/03 03:33:35;;;;;;;0.77;0.50;;;;;;;-141.84;81.60;22237.16;5054610;28;20194;-57
2024/01/03 03:36:11;;;;;;;1.30;0.40;;;;;;;-141.84;83.17;25030.31;5053375;28;20319;-57
2024/01/03 03:38:40;;;;;;;1.13;0.60;;;;;;;-141.84;82.44;24053.63;5053910;28;20312;-57
2024/01/03 03:41:11;;;;;;;2.13;0.50;;;;;;;-141.84;81.89;22743.56;5053196;28;20213;-57
2024/01/03 03:43:41;;;;;;;1.37;0.50;;;;;;;-141.84;80.53;20964.31;5053518;28;20878;-57
2024/01/03 03:46:11;;;;;;;0.60;0.47;;;;;;;-141.84;82.69;24324.22;5053875;28;20201;-55
2024/01/03 03:48:40;;;;;;;1.87;0.70;;;;;;;-141.84;82.42;23734.19;5054558;28;20198;-57
2024/01/03 03:51:09;;;;;;;1.20;0.60;;;;;;;-141.84;80.94;21261.16;5053253;28;20816;-58
2024/01/03 03:53:38;;;;;;;0.90;0.50;;;;;;;-141.84;81.82;22501.53;5056205;28;20248;-56
2024/01/03 03:56:07;;;;;;;0.30;0.30;;;;;;;-141.84;82.27;23427.00;5056022;28;20229;-56
2024/01/03 03:58:35;;;;;;;2.20;0.60;;;;;;;-141.84;81.23;21610.84;5048600;28;20259;-52
2024/01/03 04:01:08;;;;;;;1.07;0.50;;;;;;;-141.84;80.88;21098.50;5054070;28;20229;-56
2024/01/03 04:03:37;;;;;;;0.87;0.63;;;;;;;-141.84;80.33;20667.53;5054703;28;20186;-57
2024/01/03 04:06:06;;;;;;;0.60;0.40;;;;;;;-141.84;80.87;21442.09;5053731;28;20225;-55
2024/01/03 04:08:35;;;;;;;1.00;0.40;;;;;;;-141.84;79.79;20145.13;5053363;28;20316;-55
2024/01/03 04:11:04;;;;;;;2.03;0.50;;;;;;;-141.84;79.75;20088.22;5052830;28;20225;-56
2024/01/03 04:13:32;;;;;;;2.33;0.50;;;;;;;-141.84;79.59;20021.16;5053367;28;20237;-56
2024/01/03 04:16:07;;;;;;;1.23;0.60;;;;;;;-141.84;78.15;19460.22;5053245;28;20272;-57
2024/01/03 04:18:36;;;;;;;0.77;0.57;;;;;;;-141.84;77.05;19198.09;5053771;28;20224;-55
2024/01/03 04:21:07;;;;;;;1.20;0.50;;;;;;;-141.84;77.77;19287.50;5052928;28;20224;-55
2024/01/03 04:23:36;;;;;;;1.23;0.80;;;;;;;-141.84;77.69;19265.13;5053472;28;20222;-56
2024/01/03 04:26:05;;;;;;;0.63;0.33;;;;;;;-141.84;78.73;19525.25;5052973;28;20300;-56
2024/01/03 04:28:34;;;;;;;1.50;0.40;;;;;;;-141.84;77.62;19275.31;5052517;28;20721;-54
2024/01/03 04:31:02;;;;;;;1.00;0.60;;;;;;;-141.84;76.51;19068.03;5052374;28;20221;-57
2024/01/03 04:33:32;;;;;;;2.57;0.50;;;;;;;-141.84;74.75;18862.81;5053247;28;20198;-57
2024/01/03 04:36:01;;;;;;;1.47;0.40;;;;;;;-141.84;74.86;18860.78;5052017;28;20225;-54
2024/01/03 04:38:30;;;;;;;1.00;0.40;;;;;;;-141.84;74.01;18822.19;5051923;28;20288;-56
2024/01/03 04:41:00;;;;;;;3.50;0.63;;;;;;;-141.84;74.24;18785.59;5051204;28;20240;-56
2024/01/03 04:43:28;;;;;;;1.57;0.50;;;;;;;-141.84;73.95;18781.53;5052501;28;20616;-54
2024/01/03 04:45:57;;;;;;;2.67;0.87;;;;;;;-141.84;75.26;18921.75;5052801;28;20281;-55
2024/01/03 04:48:25;;;;;;;1.70;0.80;;;;;;;-141.84;73.73;18797.78;5052327;28;20308;-56
2024/01/03 04:50:55;;;;;;;2.70;0.47;;;;;;;-141.84;72.70;18761.22;5044210;28;20232;-55
2024/01/03 04:53:24;;;;;;;0.80;0.40;;;;;;;-141.84;72.36;18753.09;5052516;28;20345;-56
2024/01/03 04:55:52;;;;;;;2.13;0.50;;;;;;;-141.84;71.97;18698.22;5052248;28;20247;-56
2024/01/03 04:58:21;;;;;;;1.37;0.60;;;;;;;-141.84;71.90;18681.97;5045828;28;20251;-56
2024/01/03 05:00:49;;;;;;;1.27;0.40;;;;;;;-141.84;73.63;18783.56;5052566;28;20209;-55
2024/01/03 05:03:19;;;;;;;0.50;0.50;;;;;;;-141.84;73.46;18773.41;5052110;28;20225;-55
2024/01/03 05:05:48;;;;;;;0.43;0.43;;;;;;;-141.84;71.46;18730.75;5052061;28;20227;-56
2024/01/03 05:08:18;;;;;;;0.53;0.50;;;;;;;-141.84;71.51;18714.50;5052369;28;20232;-57
2024/01/03 05:10:46;;;;;;;1.33;0.60;;;;;;;-141.84;70.50;18694.16;5051550;28;20244;-55
2024/01/03 05:13:15;;;;;;;0.47;0.30;;;;;;;-141.84;71.92;18702.28;5052122;28;20245;-57
2024/01/03 05:15:44;;;;;;;2.80;0.47;;;;;;;-141.84;71.43;18710.44;5052406;28;20241;-54
2024/01/03 05:18:12;;;;;;;1.47;0.50;;;;;;;-141.84;70.54;18690.09;5043673;28;20229;-55
2024/01/03 05:20:42;;;;;;;1.43;0.40;;;;;;;-141.84;70.46;18675.88;5051923;28;20225;-56
2024/01/03 05:23:10;;;;;;;2.00;0.40;;;;;;;-141.84;71.34;18684.00;5051977;28;20278;-58
2024/01/03 05:25:40;;;;;;;2.33;1.20;;;;;;;-141.84;72.21;18728.72;5052108;28;20252;-51
2024/01/03 05:28:09;;;;;;;2.83;1.73;;;;;;;-141.84;71.89;18761.22;5052500;28;20224;-54
2024/01/03 05:30:39;;;;;;;2.43;0.80;;;;;;;-141.84;72.50;18753.09;5052267;28;20204;-53
2024/01/03 05:33:07;;;;;;;0.77;0.67;;;;;;;-141.84;72.95;18765.28;5051726;28;20313;-52
2024/01/03 05:35:36;;;;;;;2.10;0.50;;;;;;;-141.84;73.76;18832.34;5051412;28;20316;-57
2024/01/03 05:38:05;;;;;;;1.03;0.60;;;;;;;-141.84;74.42;18812.00;5048658;28;20615;-57
2024/01/03 05:40:35;;;;;;;1.57;0.60;;;;;;;-141.84;74.38;18818.09;5051182;28;20336;-55
2024/01/03 05:43:05;;;;;;;0.37;0.37;;;;;;;-141.84;74.61;18872.97;5051518;28;20247;-54
2024/01/03 05:45:33;;;;;;;0.83;0.40;;;;;;;-141.84;75.47;18919.69;5050193;28;20197;-56
2024/01/03 05:48:02;;;;;;;1.60;0.40;;;;;;;-141.84;74.50;18860.78;5051322;28;20252;-59
2024/01/03 05:50:31;;;;;;;1.20;0.40;;;;;;;-141.84;76.74;19049.75;5049726;28;20231;-57
2024/01/03 05:52:59;;;;;;;0.90;0.37;;;;;;;-141.84;77.80;19236.69;5051432;28;20236;-57
2024/01/03 05:55:28;;;;;;;0.40;0.33;;;;;;;-141.84;75.61;18960.34;5051576;28;20313;-54
2024/01/03 05:57:57;;;;;;;0.60;0.30;;;;;;;-141.84;75.31;18962.38;5037360;28;20658;-56
2024/01/03 06:00:27;;;;;;;2.87;1.10;;;;;;;-141.84;72.85;18793.72;5051163;28;20644;-56
2024/01/03 06:02:55;;;;;;;0.43;0.43;;;;;;;-141.84;74.43;18842.50;5051138;28;20217;-57
2024/01/03 06:05:26;;;;;;;2.10;0.50;;;;;;;-141.84;74.17;18872.97;5051134;28;20229;-54
2024/01/03 06:07:54;;;;;;;0.80;0.50;;;;;;;-141.84;74.26;18870.94;5051320;28;20224;-55
2024/01/03 06:10:23;;;;;;;2.17;0.50;;;;;;;-141.84;75.29;18944.09;5051005;28;20229;-55
2024/01/03 06:12:51;;;;;;;1.47;0.60;;;;;;;-141.84;74.52;18903.44;5051253;28;20275;-56
2024/01/03 06:15:20;;;;;;;0.50;0.50;;;;;;;-141.84;74.50;18862.81;5051001;28;20255;-56
2024/01/03 06:17:50;;;;;;;1.27;0.70;;;;;;;-141.84;74.75;18897.34;5050940;28;20255;-57
2024/01/03 06:20:19;;;;;;;1.23;0.80;;;;;;;-141.84;74.06;18856.72;5043063;28;20625;-54
2024/01/03 06:22:51;;;;;;;1.40;0.60;;;;;;;-141.84;73.80;18842.50;5051246;28;20271;-55
2024/01/03 06:25:19;;;;;;;2.13;0.60;;;;;;;-141.84;75.08;18913.59;5047925;28;20910;-56
2024/01/03 06:27:48;;;;;;;0.70;0.60;;;;;;;-141.84;75.98;19017.25;5043398;28;20717;-55
2024/01/03 06:30:16;;;;;;;2.20;0.70;;;;;;;-141.84;76.67;19106.66;5050646;28;20228;-57
2024/01/03 06:32:45;;;;;;;1.77;0.70;;;;;;;-141.84;78.01;19307.81;5048900;28;20594;-55
2024/01/03 06:35:15;;;;;;;0.50;0.50;;;;;;;-141.84;78.68;19551.69;5050252;28;20619;-57
2024/01/03 06:37:44;;;;;;;1.30;0.60;;;;;;;-141.84;78.99;19671.56;5050638;28;20619;-59
2024/01/03 06:40:13;;;;;;;2.03;0.60;;;;;;;-141.84;79.22;19801.66;5050552;28;20269;-56
2024/01/03 06:42:41;;;;;;;1.37;1.00;;;;;;;-141.84;78.88;19582.16;5051038;28;20226;-57
2024/01/03 06:45:10;;;;;;;1.97;0.60;;;;;;;-141.84;76.66;19114.78;5050500;28;20904;-53
2024/01/03 06:47:41;;;;;;;1.07;0.70;;;;;;;-141.84;77.25;19183.84;5040666;28;20621;-56
2024/01/03 06:50:13;;;;;;;3.63;0.90;;;;;;;-141.84;77.88;19293.59;5048946;28;20260;-56
2024/01/03 06:52:42;;;;;;;0.90;0.70;;;;;;;-141.84;77.66;19281.41;5050279;28;20318;-58
2024/01/03 06:55:11;;;;;;;1.43;0.50;;;;;;;-141.84;75.97;19033.50;5050446;28;20247;-55
2024/01/03 06:57:39;;;;;;;1.27;0.60;;;;;;;-141.84;75.33;18938.00;5045824;28;20252;-58
2024/01/03 07:00:09;;;;;;;2.67;0.87;;;;;;;-141.84;74.12;18931.91;5049776;28;20225;-57
2024/01/03 07:02:37;;;;;;;1.27;0.50;;;;;;;-141.84;74.55;18872.97;5049589;28;20638;-57
2024/01/03 07:05:06;;;;;;;2.10;0.70;;;;;;;-141.84;74.10;18854.69;5050213;28;20225;-55
2024/01/03 07:07:35;;;;;;;2.07;0.70;;;;;;;-141.84;73.13;18803.88;5042901;28;20225;-55
2024/01/03 07:10:06;;;;;;;3.03;0.60;;;;;;;-141.84;72.93;18783.56;5045345;28;20546;-52
2024/01/03 07:12:34;;;;;;;1.37;0.60;;;;;;;-141.84;73.25;18814.03;5048399;28;20205;-55
2024/01/03 07:15:03;;;;;;;0.90;0.70;;;;;;;-141.84;72.68;18763.25;5048553;28;20243;-51
2024/01/03 07:17:32;;;;;;;2.03;0.83;;;;;;;-141.84;73.50;18809.97;5049778;28;20221;-55
2024/01/03 07:20:00;;;;;;;1.20;0.70;;;;;;;-141.84;73.55;18812.00;5049059;28;20840;-57
2024/01/03 07:22:29;;;;;;;2.27;0.80;;;;;;;-141.84;73.81;18820.16;5049368;28;20240;-55
2024/01/03 07:24:57;;;;;;;1.53;0.70;;;;;;;-141.84;73.53;18814.03;5050527;28;20287;-55
2024/01/03 07:27:27;;;;;;;1.47;0.80;;;;;;;-141.84;72.42;18761.22;5043238;28;20240;-55
2024/01/03 07:29:56;;;;;;;2.00;0.70;;;;;;;-141.84;73.21;18809.97;5049322;28;20313;-55
2024/01/03 07:32:25;;;;;;;1.07;0.90;;;;;;;-141.84;72.90;18803.88;5049189;28;20225;-56
2024/01/03 07:34:54;;;;;;;1.53;0.80;;;;;;;-141.84;73.57;18830.31;5036549;28;20260;-55
2024/01/03 07:37:22;;;;;;;2.97;0.90;;;;;;;-141.84;72.95;18789.66;5049437;28;20228;-57
2024/01/03 07:39:51;;;;;;;2.63;0.80;;;;;;;-141.84;73.02;18828.28;5049676;28;20284;-54
2024/01/03 07:42:20;;;;;;;2.20;0.90;;;;;;;-141.84;73.42;18805.91;5049527;28;20217;-55
2024/01/03 07:44:50;;;;;;;3.63;0.80;;;;;;;-141.84;74.06;18860.78;5049493;28;20559;-55
2024/01/03 07:47:19;;;;;;;2.03;0.60;;;;;;;-141.84;73.83;18858.75;5049188;28;20245;-54
2024/01/03 07:49:47;;;;;;;1.33;0.80;;;;;;;-141.84;74.61;18915.63;5049551;28;20225;-54
2024/01/03 07:52:16;;;;;;;1.57;0.90;;;;;;;-141.84;74.52;18875.00;5049829;28;20229;-56
2024/01/03 07:54:45;;;;;;;3.17;0.70;;;;;;;-141.84;75.69;19009.09;5049966;28;20313;-56
2024/01/03 07:57:13;;;;;;;2.97;1.00;;;;;;;-141.84;74.80;18944.09;5047922;28;20300;-56
2024/01/03 07:59:44;;;;;;;2.47;0.70;;;;;;;-141.84;75.56;19009.09;5045956;28;20312;-56
2024/01/03 08:02:15;;;;;;;2.57;0.50;;;;;;;-141.84;74.82;18925.81;5049179;28;20387;-54
2024/01/03 08:04:43;;;;;;;2.30;0.70;;;;;;;-141.84;74.79;18911.56;5049652;28;20256;-53
2024/01/03 08:07:12;;;;;;;2.03;0.70;;;;;;;-141.84;74.80;18946.13;5049524;28;20194;-55
2024/01/03 08:09:40;;;;;;;1.03;0.60;;;;;;;-141.84;75.03;18996.91;5042311;28;20201;-56
2024/01/03 08:12:09;;;;;;;1.63;0.73;;;;;;;-141.84;75.91;19041.63;5049814;28;20240;-61
2024/01/03 08:14:38;;;;;;;1.70;0.80;;;;;;;-141.84;76.68;19192.00;5050330;28;20245;-56
2024/01/03 08:17:06;;;;;;;2.47;0.93;;;;;;;-141.84;76.67;19169.63;5052624;28;20225;-54
2024/01/03 08:19:39;;;;;;;2.13;0.90;;;;;;;-141.84;75.90;19100.53;5052901;28;20271;-57
2024/01/03 08:22:08;;;;;;;3.03;0.60;;;;;;;-141.84;75.97;19118.84;5052948;28;20212;-60
2024/01/03 08:24:36;;;;;;;1.67;0.90;;;;;;;-141.84;77.58;19344.41;5053130;28;20233;-52
2024/01/03 08:27:05;;;;;;;4.13;2.20;;;;;;;-141.84;77.44;19348.47;5052331;28;20217;-54
2024/01/03 08:29:36;;;;;;;2.70;0.90;;;;;;;-141.84;77.24;19250.91;5052302;28;20225;-55
2024/01/03 08:32:05;;;;;;;2.33;0.87;;;;;;;-141.84;77.09;19254.97;5048332;28;20254;-52
2024/01/03 08:34:35;;;;;;;1.50;0.83;;;;;;;-141.84;77.00;19222.47;5052001;28;20235;-54
2024/01/03 08:37:04;;;;;;;3.77;1.23;;;;;;;-141.84;76.19;19108.69;5052728;28;20202;-55
2024/01/03 08:39:32;;;;;;;4.23;1.03;;;;;;;-141.84;74.74;18964.41;5052933;28;20229;-56
2024/01/03 08:42:01;;;;;;;2.53;0.90;;;;;;;-141.84;72.34;18818.09;5052080;28;20245;-58
2024/01/03 08:44:30;;;;;;;2.83;1.27;;;;;;;-141.84;71.92;18836.41;5052343;28;20253;-52
2024/01/03 08:46:58;;;;;;;4.50;1.33;;;;;;;-141.84;73.03;18850.63;5051623;28;20551;-51
2024/01/03 08:49:27;;;;;;;2.80;1.00;;;;;;;-141.84;72.49;18840.47;5052190;28;20311;-50
2024/01/03 08:51:57;;;;;;;3.93;1.10;;;;;;;-141.84;71.47;18809.97;5052755;28;20288;-55
2024/01/03 08:54:26;;;;;;;2.67;1.07;;;;;;;-141.84;71.57;18793.72;5052203;28;20279;-55
2024/01/03 08:56:55;;;;;;;2.80;0.80;;;;;;;-141.84;71.07;18779.50;5051343;28;20245;-54
2024/01/03 08:59:23;;;;;;;4.80;1.03;;;;;;;-141.84;70.53;18777.47;5046940;28;20249;-55
2024/01/03 09:01:53;;;;;;;4.63;1.03;;;;;;;-141.84;69.57;18732.78;5051716;28;20225;-51
2024/01/03 09:04:22;;;;;;;3.27;1.10;;;;;;;-141.84;69.47;18744.97;5051635;28;20791;-54
2024/01/03 09:06:52;;;;;;;4.97;1.73;;;;;;;-141.84;69.36;18757.16;5052716;28;20267;-55
2024/01/03 09:09:22;;;;;;;4.60;1.30;;;;;;;-141.84;69.72;18769.34;5051668;28;20246;-57
2024/01/03 09:11:51;;;;;;;1.50;0.90;;;;;;;-141.84;69.87;18738.88;5046654;28;20217;-54
2024/01/03 09:14:20;;;;;;;4.07;1.00;;;;;;;-141.84;68.10;18732.78;5051385;28;20317;-51
2024/01/03 09:16:48;;;;;;;2.00;1.00;;;;;;;-141.84;68.66;18740.91;5051667;28;20231;-55
2024/01/03 09:19:17;;;;;;;2.27;1.10;;;;;;;-141.84;69.18;18740.91;5051620;28;20206;-55
2024/01/03 09:21:46;;;;;;;4.07;1.13;;;;;;;-141.84;69.55;18761.22;5052279;28;20213;-55
2024/01/03 09:24:14;;;;;;;2.00;0.90;;;;;;;-141.84;69.18;18763.25;5051722;28;20217;-56
2024/01/03 09:26:44;;;;;;;2.80;0.77;;;;;;;-141.84;68.30;18765.28;5050932;28;20328;-57
2024/01/03 09:29:13;;;;;;;1.63;0.80;;;;;;;-141.84;68.92;18736.84;5050889;28;20232;-51
2024/01/03 09:31:44;;;;;;;2.93;1.10;;;;;;;-141.84;69.67;18761.22;5050422;28;20735;-51
2024/01/03 09:34:13;;;;;;;2.63;1.20;;;;;;;-141.84;69.67;18753.09;5051507;28;20312;-53
2024/01/03 09:36:42;;;;;;;2.27;1.10;;;;;;;-141.84;70.02;18777.47;5051979;28;20193;-59
2024/01/03 09:39:12;;;;;;;3.43;1.10;;;;;;;-141.84;70.40;18785.59;5046984;28;20229;-57
2024/01/03 09:41:40;;;;;;;1.63;0.80;;;;;;;-141.84;68.97;18785.59;5035259;28;20293;-59
2024/01/03 09:44:11;;;;;;;2.33;0.80;;;;;;;-141.84;68.04;18749.03;5046783;28;20279;-60
2024/01/03 09:46:40;;;;;;;3.37;1.00;;;;;;;-141.84;68.16;18734.81;5050671;28;20232;-60
2024/01/03 09:49:10;;;;;;;5.37;1.10;;;;;;;-141.84;67.54;18781.53;5050888;28;20220;-60
2024/01/03 09:51:41;;;;;;;4.13;1.30;;;;;;;-141.84;65.69;18765.28;5050915;28;20229;-60
2024/01/03 09:54:10;;;;;;;1.70;0.90;;;;;;;-141.84;66.35;18769.34;5051034;28;20233;-59
2024/01/03 09:56:40;;;;;;;1.80;0.90;;;;;;;-141.84;66.75;18753.09;5051146;28;20201;-60
2024/01/03 09:59:10;;;;;;;1.88;0.80;;;;;;;-141.84;65.91;18726.69;5050348;28;20229;-61
2024/01/03 10:01:39;;;;;;;2.03;0.90;;;;;;;-141.84;65.65;18769.34;5050579;28;20229;-60
2024/01/03 10:04:08;;;;;;;1.83;1.00;;;;;;;-141.84;65.92;18730.75;5050450;28;20259;-59
2024/01/03 10:06:52;;;;;;;2.63;1.03;;;;;;;-141.84;65.39;18753.09;5050755;28;20225;-58
2024/01/03 10:09:22;;;;;;;4.33;1.03;;;;;;;-141.84;64.64;18744.97;5050665;28;20229;-60
2024/01/03 10:11:52;;;;;;;1.63;0.70;;;;;;;-141.84;64.49;18753.09;5051282;28;20217;-60
2024/01/03 10:14:22;;;;;;;1.33;0.83;;;;;;;-141.84;64.19;18747.00;5050411;28;20217;-60
2024/01/03 10:16:51;;;;;;;3.30;1.10;;;;;;;-141.84;63.33;18738.88;5049390;28;20738;-60
2024/01/03 10:19:22;;;;;;;2.07;0.80;;;;;;;-141.84;64.37;18728.72;5050448;28;20320;-61
2024/01/03 10:21:53;;;;;;;2.87;0.93;;;11.20;99.90;;;-141.84;63.71;18742.94;5050602;28;20713;-63
2024/01/03 10:24:24;;;;;;;2.50;1.07;;;11.30;99.90;;;-141.84;63.17;18724.66;5050596;28;20221;-60
2024/01/03 10:26:54;;;;;;;1.05;0.60;;;11.30;99.90;;;-141.84;62.70;18728.72;5050856;28;20668;-62
2024/01/03 10:29:23;;;;;;;2.13;0.80;;;11.40;99.90;;;-141.84;63.28;18747.00;5050297;28;20229;-64
2024/01/03 10:31:52;;;;;;;2.17;0.73;;;11.40;99.90;;;-141.84;63.29;18773.41;5050437;28;20224;-59
2024/01/03 10:34:24;;;;;;;1.15;0.77;;;11.40;99.90;;;-141.84;62.56;18761.22;5050205;28;20297;-58
2024/01/03 10:36:56;;;;;;;1.63;0.90;;;11.50;99.90;;;-141.84;61.12;18789.66;5044142;28;20217;-61
2024/01/03 10:39:25;;;;;;;4.75;0.95;;;11.80;99.90;;;-141.84;60.41;18791.69;5050288;28;20229;-62
2024/01/03 10:41:55;;;;;;;4.43;1.25;;;11.80;99.90;;;-141.84;59.14;18761.22;5050539;28;20746;-61
2024/01/03 10:44:25;;;;;;;3.63;1.17;;;12.00;99.90;;;-141.84;59.12;18799.81;5050266;28;20221;-60
2024/01/03 10:46:54;;;;;;;3.33;0.80;;;12.00;99.90;;;-141.84;58.92;18824.22;5050445;28;20225;-60
2024/01/03 10:49:22;;;;;;;2.42;0.98;;;12.10;99.90;;;-141.84;60.15;18820.16;5049936;28;20233;-61
2024/01/03 10:52:02;;;;;;;3.03;0.90;;;12.00;99.90;;;-141.84;59.99;18747.00;5049086;28;20305;-61
2024/01/03 10:54:42;;;;;;;2.30;0.77;;;11.90;99.90;;;-141.84;60.23;18795.75;5050350;28;20649;-61
2024/01/03 10:57:13;;;;;;;1.83;0.77;;;11.90;99.90;;;-141.84;59.45;18799.81;5050185;28;20280;-60
2024/01/03 10:59:57;;;;;;;3.47;1.00;;;11.90;99.90;;;-141.84;60.36;18803.88;5050271;28;20726;-60
2024/01/03 11:02:37;;;;;;;2.42;0.80;;;12.00;99.90;;;-141.84;60.41;18765.28;5050037;28;20205;-60
2024/01/03 11:05:22;;;;;;;1.92;1.23;;;11.90;99.90;;;-141.84;61.50;18744.97;5049848;28;20217;-60
2024/01/03 11:08:00;;;;;;;2.10;0.80;;;11.80;99.90;;;-141.84;61.31;18789.66;5050379;28;20291;-61
2024/01/03 11:10:47;;;;;;;1.40;0.68;;;11.80;99.90;;;-141.84;62.22;18759.19;5050106;28;20308;-62
2024/01/03 11:13:29;;;;;;;1.53;0.80;;;11.70;99.90;;;-141.84;61.80;18771.38;5049936;28;20229;-61
2024/01/03 11:16:00;;;;;;;1.93;0.80;;;11.70;99.90;;;-141.84;61.82;18757.16;5043416;28;20229;-60
2024/01/03 11:18:52;;;;;;;1.70;0.57;;;11.70;99.90;;;-141.84;61.41;18795.75;5049904;28;20283;-61
2024/01/03 11:21:44;;;;;;;3.10;1.00;;;11.70;99.90;;;-141.84;60.19;18793.72;5044437;28;20233;-60